sensor_id;sensor_type;location;lat;lon;timestamp;pressure;altitude;pressure_sealevel;temperature;humidity
34237;BME280;20501;45.956;13.632;2023-04-20T00:00:02;100334.84;;;14.52;70.27
34237;BME280;20501;45.956;13.632;2023-04-20T00:02:35;100329.03;;;13.48;75.01
34237;BME280;20501;45.956;13.632;2023-04-20T00:05:01;100320.84;;;12.18;82.01
34237;BME280;20501;45.956;13.632;2023-04-20T00:07:26;100326.03;;;11.93;84.09
34237;BME280;20501;45.956;13.632;2023-04-20T00:09:53;100330.66;;;12.01;84.51
34237;BME280;20501;45.956;13.632;2023-04-20T00:12:19;100318.25;;;12.87;79.17
34237;BME280;20501;45.956;13.632;2023-04-20T00:14:45;100315.34;;;12.28;81.55
34237;BME280;20501;45.956;13.632;2023-04-20T00:17:10;100314.94;;;12.75;79.51
34237;BME280;20501;45.956;13.632;2023-04-20T00:19:35;100315.66;;;13.63;75.44
34237;BME280;20501;45.956;13.632;2023-04-20T00:22:01;100312.19;;;12.67;80.88
34237;BME280;20501;45.956;13.632;2023-04-20T00:24:26;100313.81;;;13.64;74.53
34237;BME280;20501;45.956;13.632;2023-04-20T00:26:51;100303.44;;;12.73;79.39
34237;BME280;20501;45.956;13.632;2023-04-20T00:29:17;100299.63;;;13.35;75.74
34237;BME280;20501;45.956;13.632;2023-04-20T00:31:42;100304.31;;;14.26;71.55
34237;BME280;20501;45.956;13.632;2023-04-20T00:34:08;100304.97;;;14.61;70.01
34237;BME280;20501;45.956;13.632;2023-04-20T00:36:33;100299.38;;;14.46;70.55
34237;BME280;20501;45.956;13.632;2023-04-20T00:38:58;100291.59;;;12.48;80.39
34237;BME280;20501;45.956;13.632;2023-04-20T00:41:24;100295.31;;;11.66;85.03
34237;BME280;20501;45.956;13.632;2023-04-20T00:43:53;100296.47;;;12.70;78.90
34237;BME280;20501;45.956;13.632;2023-04-20T00:46:19;100296.19;;;12.03;82.13
34237;BME280;20501;45.956;13.632;2023-04-20T00:48:45;100290.38;;;13.79;73.33
34237;BME280;20501;45.956;13.632;2023-04-20T00:51:11;100278.91;;;12.83;78.18
34237;BME280;20501;45.956;13.632;2023-04-20T00:53:37;100286.16;;;14.09;72.19
34237;BME280;20501;45.956;13.632;2023-04-20T00:56:03;100281.03;;;14.39;70.92
34237;BME280;20501;45.956;13.632;2023-04-20T00:58:28;100284.91;;;14.62;69.57
34237;BME280;20501;45.956;13.632;2023-04-20T01:00:54;100283.47;;;14.01;72.62
34237;BME280;20501;45.956;13.632;2023-04-20T01:03:19;100282.63;;;13.16;75.97
34237;BME280;20501;45.956;13.632;2023-04-20T01:05:46;100286.16;;;13.85;73.19
34237;BME280;20501;45.956;13.632;2023-04-20T01:08:11;100275.59;;;12.63;78.72
34237;BME280;20501;45.956;13.632;2023-04-20T01:10:37;100273.59;;;11.40;85.78
34237;BME280;20501;45.956;13.632;2023-04-20T01:13:02;100282.22;;;11.25;84.96
34237;BME280;20501;45.956;13.632;2023-04-20T01:15:28;100282.53;;;11.22;87.38
34237;BME280;20501;45.956;13.632;2023-04-20T01:17:53;100278.81;;;13.01;77.17
34237;BME280;20501;45.956;13.632;2023-04-20T01:20:18;100276.16;;;14.02;72.72
34237;BME280;20501;45.956;13.632;2023-04-20T01:22:48;100277.09;;;12.92;77.53
34237;BME280;20501;45.956;13.632;2023-04-20T01:25:14;100275.78;;;14.21;71.30
34237;BME280;20501;45.956;13.632;2023-04-20T01:27:40;100276.31;;;13.75;73.20
34237;BME280;20501;45.956;13.632;2023-04-20T01:30:06;100279.53;;;14.12;71.60
34237;BME280;20501;45.956;13.632;2023-04-20T01:32:33;100276.63;;;13.48;74.13
34237;BME280;20501;45.956;13.632;2023-04-20T01:34:58;100270.56;;;13.78;72.97
34237;BME280;20501;45.956;13.632;2023-04-20T01:37:24;100266.44;;;14.16;71.02
34237;BME280;20501;45.956;13.632;2023-04-20T01:39:49;100276.66;;;14.14;71.04
34237;BME280;20501;45.956;13.632;2023-04-20T01:42:15;100275.47;;;14.00;71.68
34237;BME280;20501;45.956;13.632;2023-04-20T01:44:40;100273.22;;;12.33;79.06
34237;BME280;20501;45.956;13.632;2023-04-20T01:47:06;100262.66;;;12.22;78.79
34237;BME280;20501;45.956;13.632;2023-04-20T01:49:31;100266.16;;;13.18;75.37
34237;BME280;20501;45.956;13.632;2023-04-20T01:51:56;100273.09;;;12.43;78.69
34237;BME280;20501;45.956;13.632;2023-04-20T01:54:22;100270.38;;;13.97;72.01
34237;BME280;20501;45.956;13.632;2023-04-20T01:56:47;100264.41;;;14.18;70.90
34237;BME280;20501;45.956;13.632;2023-04-20T01:59:13;100269.69;;;14.03;71.36
34237;BME280;20501;45.956;13.632;2023-04-20T02:01:38;100266.16;;;14.02;71.46
34237;BME280;20501;45.956;13.632;2023-04-20T02:04:04;100265.78;;;13.72;72.79
34237;BME280;20501;45.956;13.632;2023-04-20T02:06:29;100265.28;;;14.10;71.10
34237;BME280;20501;45.956;13.632;2023-04-20T02:08:56;100267.94;;;14.51;69.50
34237;BME280;20501;45.956;13.632;2023-04-20T02:11:21;100264.00;;;14.62;68.71
34237;BME280;20501;45.956;13.632;2023-04-20T02:13:47;100260.34;;;13.48;73.31
34237;BME280;20501;45.956;13.632;2023-04-20T02:16:12;100258.81;;;13.53;72.94
34237;BME280;20501;45.956;13.632;2023-04-20T02:18:38;100260.53;;;14.04;71.04
34237;BME280;20501;45.956;13.632;2023-04-20T02:21:04;100257.97;;;13.94;71.46
34237;BME280;20501;45.956;13.632;2023-04-20T02:23:30;100264.94;;;13.72;72.56
34237;BME280;20501;45.956;13.632;2023-04-20T02:25:55;100259.97;;;14.42;69.54
34237;BME280;20501;45.956;13.632;2023-04-20T02:28:20;100263.66;;;14.65;68.61
34237;BME280;20501;45.956;13.632;2023-04-20T02:30:46;100261.97;;;14.64;68.70
34237;BME280;20501;45.956;13.632;2023-04-20T02:33:11;100267.22;;;14.74;68.23
34237;BME280;20501;45.956;13.632;2023-04-20T02:35:37;100264.88;;;12.96;76.35
34237;BME280;20501;45.956;13.632;2023-04-20T02:38:02;100265.47;;;13.92;71.58
34237;BME280;20501;45.956;13.632;2023-04-20T02:40:28;100255.25;;;14.27;70.42
34237;BME280;20501;45.956;13.632;2023-04-20T02:42:53;100256.28;;;14.18;70.51
34237;BME280;20501;45.956;13.632;2023-04-20T02:45:19;100259.16;;;14.16;70.55
34237;BME280;20501;45.956;13.632;2023-04-20T02:47:44;100258.66;;;13.88;71.80
34237;BME280;20501;45.956;13.632;2023-04-20T02:50:11;100255.25;;;13.61;73.70
34237;BME280;20501;45.956;13.632;2023-04-20T02:52:36;100261.53;;;13.78;72.07
34237;BME280;20501;45.956;13.632;2023-04-20T02:55:01;100256.28;;;13.85;71.94
34237;BME280;20501;45.956;13.632;2023-04-20T02:57:27;100251.19;;;13.65;72.25
34237;BME280;20501;45.956;13.632;2023-04-20T02:59:53;100251.81;;;12.83;76.44
34237;BME280;20501;45.956;13.632;2023-04-20T03:02:18;100251.22;;;13.06;76.86
34237;BME280;20501;45.956;13.632;2023-04-20T03:04:43;100242.88;;;14.08;71.00
34237;BME280;20501;45.956;13.632;2023-04-20T03:07:09;100247.72;;;13.30;74.34
34237;BME280;20501;45.956;13.632;2023-04-20T03:09:35;100247.09;;;13.61;73.93
34237;BME280;20501;45.956;13.632;2023-04-20T03:12:02;100243.69;;;14.33;70.12
34237;BME280;20501;45.956;13.632;2023-04-20T03:14:28;100240.19;;;14.08;70.61
34237;BME280;20501;45.956;13.632;2023-04-20T03:16:53;100251.75;;;13.18;74.47
34237;BME280;20501;45.956;13.632;2023-04-20T03:19:19;100245.16;;;13.20;75.21
34237;BME280;20501;45.956;13.632;2023-04-20T03:21:45;100249.84;;;13.86;72.07
34237;BME280;20501;45.956;13.632;2023-04-20T03:24:10;100249.78;;;11.98;80.90
34237;BME280;20501;45.956;13.632;2023-04-20T03:26:36;100244.44;;;11.70;82.10
34237;BME280;20501;45.956;13.632;2023-04-20T03:29:01;100252.31;;;11.45;82.32
34237;BME280;20501;45.956;13.632;2023-04-20T03:31:27;100251.16;;;11.29;83.44
34237;BME280;20501;45.956;13.632;2023-04-20T03:33:52;100246.91;;;11.81;81.37
34237;BME280;20501;45.956;13.632;2023-04-20T03:36:18;100244.94;;;12.62;76.93
34237;BME280;20501;45.956;13.632;2023-04-20T03:38:43;100246.13;;;13.78;72.70
34237;BME280;20501;45.956;13.632;2023-04-20T03:41:08;100246.63;;;13.66;72.41
34237;BME280;20501;45.956;13.632;2023-04-20T03:43:34;100248.38;;;12.12;78.57
34237;BME280;20501;45.956;13.632;2023-04-20T03:45:59;100247.09;;;13.61;72.84
34237;BME280;20501;45.956;13.632;2023-04-20T03:48:25;100249.16;;;14.00;71.60
34237;BME280;20501;45.956;13.632;2023-04-20T03:50:50;100248.56;;;12.79;75.15
34237;BME280;20501;45.956;13.632;2023-04-20T03:53:16;100252.06;;;13.82;72.21
34237;BME280;20501;45.956;13.632;2023-04-20T03:55:41;100253.75;;;14.16;70.71
34237;BME280;20501;45.956;13.632;2023-04-20T03:58:07;100251.16;;;14.15;70.15
34237;BME280;20501;45.956;13.632;2023-04-20T04:00:33;100252.56;;;13.77;71.76
34237;BME280;20501;45.956;13.632;2023-04-20T04:02:59;100251.38;;;12.61;76.60
34237;BME280;20501;45.956;13.632;2023-04-20T04:05:24;100256.28;;;13.60;72.71
34237;BME280;20501;45.956;13.632;2023-04-20T04:07:50;100258.13;;;11.32;80.16
34237;BME280;20501;45.956;13.632;2023-04-20T04:10:16;100261.75;;;11.23;82.79
34237;BME280;20501;45.956;13.632;2023-04-20T04:12:43;100263.28;;;11.25;83.58
34237;BME280;20501;45.956;13.632;2023-04-20T04:15:09;100258.81;;;12.33;78.65
34237;BME280;20501;45.956;13.632;2023-04-20T04:17:35;100262.97;;;11.83;80.27
34237;BME280;20501;45.956;13.632;2023-04-20T04:20:00;100264.59;;;12.12;77.85
34237;BME280;20501;45.956;13.632;2023-04-20T04:22:26;100261.47;;;12.85;75.68
34237;BME280;20501;45.956;13.632;2023-04-20T04:24:51;100268.63;;;12.95;72.73
34237;BME280;20501;45.956;13.632;2023-04-20T04:27:18;100262.41;;;13.70;71.45
34237;BME280;20501;45.956;13.632;2023-04-20T04:29:45;100266.69;;;13.22;73.77
34237;BME280;20501;45.956;13.632;2023-04-20T04:32:10;100267.47;;;12.36;74.58
34237;BME280;20501;45.956;13.632;2023-04-20T04:34:36;100269.50;;;11.72;79.02
34237;BME280;20501;45.956;13.632;2023-04-20T04:37:02;100268.63;;;12.95;75.20
34237;BME280;20501;45.956;13.632;2023-04-20T04:39:29;100277.84;;;12.41;76.62
34237;BME280;20501;45.956;13.632;2023-04-20T04:41:54;100285.66;;;13.73;71.67
34237;BME280;20501;45.956;13.632;2023-04-20T04:44:20;100285.50;;;12.80;75.20
34237;BME280;20501;45.956;13.632;2023-04-20T04:46:46;100285.47;;;13.58;71.38
34237;BME280;20501;45.956;13.632;2023-04-20T04:49:12;100289.38;;;13.88;71.07
34237;BME280;20501;45.956;13.632;2023-04-20T04:51:38;100282.59;;;12.74;75.70
34237;BME280;20501;45.956;13.632;2023-04-20T04:54:03;100292.38;;;12.66;75.97
34237;BME280;20501;45.956;13.632;2023-04-20T04:56:29;100282.72;;;12.98;74.71
34237;BME280;20501;45.956;13.632;2023-04-20T04:58:54;100291.75;;;14.00;70.71
34237;BME280;20501;45.956;13.632;2023-04-20T05:01:20;100296.69;;;14.13;69.96
34237;BME280;20501;45.956;13.632;2023-04-20T05:03:45;100290.91;;;13.15;73.53
34237;BME280;20501;45.956;13.632;2023-04-20T05:06:11;100297.84;;;13.60;71.82
34237;BME280;20501;45.956;13.632;2023-04-20T05:08:36;100292.56;;;12.99;74.42
34237;BME280;20501;45.956;13.632;2023-04-20T05:11:01;100300.06;;;14.06;69.95
34237;BME280;20501;45.956;13.632;2023-04-20T05:13:27;100290.06;;;14.15;70.07
34237;BME280;20501;45.956;13.632;2023-04-20T05:15:52;100293.28;;;12.22;77.83
34237;BME280;20501;45.956;13.632;2023-04-20T05:18:18;100296.13;;;13.51;72.64
34237;BME280;20501;45.956;13.632;2023-04-20T05:20:43;100298.66;;;13.53;72.26
34237;BME280;20501;45.956;13.632;2023-04-20T05:23:08;100300.75;;;14.17;69.63
34237;BME280;20501;45.956;13.632;2023-04-20T05:25:34;100302.19;;;12.94;75.24
34237;BME280;20501;45.956;13.632;2023-04-20T05:28:00;100301.97;;;14.06;70.01
34237;BME280;20501;45.956;13.632;2023-04-20T05:30:25;100298.50;;;13.03;74.36
34237;BME280;20501;45.956;13.632;2023-04-20T05:32:50;100290.69;;;13.00;76.62
34237;BME280;20501;45.956;13.632;2023-04-20T05:35:16;100302.97;;;13.97;70.49
34237;BME280;20501;45.956;13.632;2023-04-20T05:37:42;100305.53;;;14.23;69.51
34237;BME280;20501;45.956;13.632;2023-04-20T05:40:07;100301.41;;;14.52;68.42
34237;BME280;20501;45.956;13.632;2023-04-20T05:42:33;100308.22;;;13.22;77.48
34237;BME280;20501;45.956;13.632;2023-04-20T05:44:59;100309.56;;;13.18;77.87
34237;BME280;20501;45.956;13.632;2023-04-20T05:47:24;100320.09;;;14.05;70.95
34237;BME280;20501;45.956;13.632;2023-04-20T05:49:51;100310.78;;;14.24;70.01
34237;BME280;20501;45.956;13.632;2023-04-20T05:52:16;100315.19;;;14.34;71.90
34237;BME280;20501;45.956;13.632;2023-04-20T05:54:42;100309.72;;;14.59;68.50
34237;BME280;20501;45.956;13.632;2023-04-20T05:57:07;100314.47;;;14.57;69.39
34237;BME280;20501;45.956;13.632;2023-04-20T05:59:33;100312.09;;;14.70;68.06
34237;BME280;20501;45.956;13.632;2023-04-20T06:01:58;100317.56;;;14.37;70.42
34237;BME280;20501;45.956;13.632;2023-04-20T06:04:23;100322.63;;;14.73;67.81
34237;BME280;20501;45.956;13.632;2023-04-20T06:06:49;100316.50;;;14.79;67.38
34237;BME280;20501;45.956;13.632;2023-04-20T06:09:16;100322.78;;;13.72;74.54
34237;BME280;20501;45.956;13.632;2023-04-20T06:11:41;100330.13;;;14.46;69.13
34237;BME280;20501;45.956;13.632;2023-04-20T06:14:07;100327.22;;;14.39;69.25
34237;BME280;20501;45.956;13.632;2023-04-20T06:16:32;100331.97;;;14.04;70.45
34237;BME280;20501;45.956;13.632;2023-04-20T06:18:57;100319.41;;;14.53;68.74
34237;BME280;20501;45.956;13.632;2023-04-20T06:21:23;100315.84;;;14.69;67.89
34237;BME280;20501;45.956;13.632;2023-04-20T06:23:49;100323.63;;;14.55;68.30
34237;BME280;20501;45.956;13.632;2023-04-20T06:26:14;100328.28;;;14.14;69.72
34237;BME280;20501;45.956;13.632;2023-04-20T06:28:40;100329.25;;;14.62;68.17
34237;BME280;20501;45.956;13.632;2023-04-20T06:31:05;100330.44;;;14.43;70.36
34237;BME280;20501;45.956;13.632;2023-04-20T06:33:31;100325.25;;;12.19;77.79
34237;BME280;20501;45.956;13.632;2023-04-20T06:35:56;100332.38;;;12.20;79.82
34237;BME280;20501;45.956;13.632;2023-04-20T06:38:23;100330.28;;;12.84;75.45
34237;BME280;20501;45.956;13.632;2023-04-20T06:40:49;100339.81;;;13.91;71.51
34237;BME280;20501;45.956;13.632;2023-04-20T06:43:14;100341.88;;;12.68;79.83
34237;BME280;20501;45.956;13.632;2023-04-20T06:45:40;100338.75;;;12.90;74.51
34237;BME280;20501;45.956;13.632;2023-04-20T06:48:05;100344.25;;;12.72;76.65
34237;BME280;20501;45.956;13.632;2023-04-20T06:50:31;100347.44;;;13.36;74.15
34237;BME280;20501;45.956;13.632;2023-04-20T06:52:56;100352.84;;;12.22;81.50
34237;BME280;20501;45.956;13.632;2023-04-20T06:55:22;100353.16;;;11.83;81.31
34237;BME280;20501;45.956;13.632;2023-04-20T06:57:47;100355.47;;;11.78;83.59
34237;BME280;20501;45.956;13.632;2023-04-20T07:00:13;100357.75;;;12.01;80.90
34237;BME280;20501;45.956;13.632;2023-04-20T07:02:47;100355.91;;;12.01;73.52
34237;BME280;20501;45.956;13.632;2023-04-20T07:05:14;100357.00;;;11.35;82.93
34237;BME280;20501;45.956;13.632;2023-04-20T07:07:40;100362.41;;;11.63;80.15
34237;BME280;20501;45.956;13.632;2023-04-20T07:10:07;100357.31;;;11.59;79.30
34237;BME280;20501;45.956;13.632;2023-04-20T07:12:36;100367.75;;;11.54;79.69
34237;BME280;20501;45.956;13.632;2023-04-20T07:15:03;100357.19;;;12.33;76.86
34237;BME280;20501;45.956;13.632;2023-04-20T07:17:29;100365.78;;;12.47;76.80
34237;BME280;20501;45.956;13.632;2023-04-20T07:19:54;100363.94;;;12.56;75.24
34237;BME280;20501;45.956;13.632;2023-04-20T07:22:21;100357.00;;;11.63;75.60
34237;BME280;20501;45.956;13.632;2023-04-20T07:24:46;100366.06;;;11.71;77.38
34237;BME280;20501;45.956;13.632;2023-04-20T07:27:11;100364.44;;;12.33;75.37
34237;BME280;20501;45.956;13.632;2023-04-20T07:29:37;100367.97;;;12.25;72.22
34237;BME280;20501;45.956;13.632;2023-04-20T07:32:03;100366.66;;;12.82;73.61
34237;BME280;20501;45.956;13.632;2023-04-20T07:34:28;100374.41;;;11.96;75.21
34237;BME280;20501;45.956;13.632;2023-04-20T07:36:54;100373.06;;;11.64;73.07
34237;BME280;20501;45.956;13.632;2023-04-20T07:39:19;100373.25;;;11.35;73.98
34237;BME280;20501;45.956;13.632;2023-04-20T07:41:44;100384.97;;;11.99;74.63
34237;BME280;20501;45.956;13.632;2023-04-20T07:44:12;100382.53;;;11.78;73.46
34237;BME280;20501;45.956;13.632;2023-04-20T07:46:37;100382.94;;;11.83;72.63
34237;BME280;20501;45.956;13.632;2023-04-20T07:49:03;100387.53;;;11.27;75.18
34237;BME280;20501;45.956;13.632;2023-04-20T07:51:28;100400.44;;;11.61;74.76
34237;BME280;20501;45.956;13.632;2023-04-20T07:53:54;100387.25;;;11.76;72.38
34237;BME280;20501;45.956;13.632;2023-04-20T07:56:21;100393.03;;;11.35;75.20
34237;BME280;20501;45.956;13.632;2023-04-20T07:58:46;100391.72;;;11.11;76.04
34237;BME280;20501;45.956;13.632;2023-04-20T08:01:12;100399.75;;;11.31;77.24
34237;BME280;20501;45.956;13.632;2023-04-20T08:03:37;100399.22;;;12.01;75.42
34237;BME280;20501;45.956;13.632;2023-04-20T08:06:02;100404.31;;;12.41;73.01
34237;BME280;20501;45.956;13.632;2023-04-20T08:08:28;100406.19;;;12.22;75.13
34237;BME280;20501;45.956;13.632;2023-04-20T08:10:56;100401.50;;;11.96;76.79
34237;BME280;20501;45.956;13.632;2023-04-20T08:13:22;100410.50;;;12.51;74.45
34237;BME280;20501;45.956;13.632;2023-04-20T08:15:47;100396.69;;;13.15;71.96
34237;BME280;20501;45.956;13.632;2023-04-20T08:18:12;100399.47;;;13.74;69.46
34237;BME280;20501;45.956;13.632;2023-04-20T08:20:38;100397.28;;;13.70;69.81
34237;BME280;20501;45.956;13.632;2023-04-20T08:23:03;100396.06;;;13.29;71.35
34237;BME280;20501;45.956;13.632;2023-04-20T08:25:28;100402.38;;;11.97;75.09
34237;BME280;20501;45.956;13.632;2023-04-20T08:27:56;100398.06;;;12.04;74.68
34237;BME280;20501;45.956;13.632;2023-04-20T08:30:22;100401.84;;;12.29;77.68
34237;BME280;20501;45.956;13.632;2023-04-20T08:32:47;100385.16;;;11.70;76.80
34237;BME280;20501;45.956;13.632;2023-04-20T08:35:12;100400.50;;;11.51;77.13
34237;BME280;20501;45.956;13.632;2023-04-20T08:37:38;100388.41;;;12.01;74.33
34237;BME280;20501;45.956;13.632;2023-04-20T08:40:04;100386.16;;;12.15;75.58
34237;BME280;20501;45.956;13.632;2023-04-20T08:42:29;100393.09;;;11.99;75.28
34237;BME280;20501;45.956;13.632;2023-04-20T08:44:56;100386.69;;;11.72;74.70
34237;BME280;20501;45.956;13.632;2023-04-20T08:47:22;100392.38;;;11.97;75.86
34237;BME280;20501;45.956;13.632;2023-04-20T08:49:51;100393.13;;;12.17;75.03
34237;BME280;20501;45.956;13.632;2023-04-20T08:52:17;100396.81;;;12.34;74.48
34237;BME280;20501;45.956;13.632;2023-04-20T08:54:43;100399.41;;;12.44;74.36
34237;BME280;20501;45.956;13.632;2023-04-20T08:57:08;100405.03;;;12.69;73.83
34237;BME280;20501;45.956;13.632;2023-04-20T08:59:35;100397.44;;;12.99;71.77
34237;BME280;20501;45.956;13.632;2023-04-20T09:02:07;100404.47;;;12.39;74.88
34237;BME280;20501;45.956;13.632;2023-04-20T09:04:33;100400.91;;;12.38;73.63
34237;BME280;20501;45.956;13.632;2023-04-20T09:06:59;100417.13;;;12.57;73.30
34237;BME280;20501;45.956;13.632;2023-04-20T09:09:24;100417.69;;;12.42;76.56
34237;BME280;20501;45.956;13.632;2023-04-20T09:12:05;100406.25;;;13.01;72.94
34237;BME280;20501;45.956;13.632;2023-04-20T09:14:47;100411.59;;;13.11;72.18
34237;BME280;20501;45.956;13.632;2023-04-20T09:17:14;100419.44;;;12.96;71.54
34237;BME280;20501;45.956;13.632;2023-04-20T09:19:40;100416.19;;;13.19;70.60
34237;BME280;20501;45.956;13.632;2023-04-20T09:22:07;100414.88;;;12.70;71.68
34237;BME280;20501;45.956;13.632;2023-04-20T09:24:34;100419.53;;;12.60;69.81
34237;BME280;20501;45.956;13.632;2023-04-20T09:27:01;100416.47;;;13.07;71.01
34237;BME280;20501;45.956;13.632;2023-04-20T09:29:27;100417.28;;;12.99;69.75
34237;BME280;20501;45.956;13.632;2023-04-20T09:31:54;100421.13;;;13.50;69.93
34237;BME280;20501;45.956;13.632;2023-04-20T09:34:20;100415.31;;;13.10;72.05
34237;BME280;20501;45.956;13.632;2023-04-20T09:36:48;100416.06;;;12.94;72.13
34237;BME280;20501;45.956;13.632;2023-04-20T09:39:21;100425.41;;;12.73;71.05
34237;BME280;20501;45.956;13.632;2023-04-20T09:41:47;100436.88;;;12.67;73.66
34237;BME280;20501;45.956;13.632;2023-04-20T09:44:15;100435.75;;;12.51;73.88
34237;BME280;20501;45.956;13.632;2023-04-20T09:46:41;100438.97;;;12.73;73.67
34237;BME280;20501;45.956;13.632;2023-04-20T09:49:08;100426.84;;;12.41;73.05
34237;BME280;20501;45.956;13.632;2023-04-20T09:51:34;100432.91;;;12.61;73.06
34237;BME280;20501;45.956;13.632;2023-04-20T09:54:02;100443.09;;;12.23;74.93
34237;BME280;20501;45.956;13.632;2023-04-20T09:56:28;100431.84;;;12.54;73.31
34237;BME280;20501;45.956;13.632;2023-04-20T09:58:55;100446.63;;;12.60;74.11
34237;BME280;20501;45.956;13.632;2023-04-20T10:01:21;100446.09;;;12.56;72.86
34237;BME280;20501;45.956;13.632;2023-04-20T10:03:48;100445.72;;;12.15;74.70
34237;BME280;20501;45.956;13.632;2023-04-20T10:06:24;100451.16;;;12.15;75.38
34237;BME280;20501;45.956;13.632;2023-04-20T10:08:51;100456.09;;;11.91;79.09
34237;BME280;20501;45.956;13.632;2023-04-20T10:11:43;100459.53;;;13.10;72.77
34237;BME280;20501;45.956;13.632;2023-04-20T10:14:17;100458.25;;;12.52;77.75
34237;BME280;20501;45.956;13.632;2023-04-20T10:16:44;100473.56;;;13.06;74.16
34237;BME280;20501;45.956;13.632;2023-04-20T10:19:11;100466.94;;;14.04;69.07
34237;BME280;20501;45.956;13.632;2023-04-20T10:21:47;100469.56;;;14.38;67.58
34237;BME280;20501;45.956;13.632;2023-04-20T10:24:14;100472.31;;;14.47;67.15
34237;BME280;20501;45.956;13.632;2023-04-20T10:26:41;100485.03;;;12.73;79.38
34237;BME280;20501;45.956;13.632;2023-04-20T10:29:08;100479.38;;;12.84;77.82
34237;BME280;20501;45.956;13.632;2023-04-20T10:31:39;100481.06;;;13.65;72.93
34237;BME280;20501;45.956;13.632;2023-04-20T10:34:06;100488.25;;;13.74;71.23
34237;BME280;20501;45.956;13.632;2023-04-20T10:36:34;100491.28;;;12.37;80.12
34237;BME280;20501;45.956;13.632;2023-04-20T10:39:13;100504.13;;;11.89;82.76
34237;BME280;20501;45.956;13.632;2023-04-20T10:42:00;100500.47;;;12.08;81.91
34237;BME280;20501;45.956;13.632;2023-04-20T10:44:29;100499.44;;;11.54;86.13
34237;BME280;20501;45.956;13.632;2023-04-20T10:46:59;100496.31;;;12.14;84.11
34237;BME280;20501;45.956;13.632;2023-04-20T10:49:26;100493.25;;;13.34;74.49
34237;BME280;20501;45.956;13.632;2023-04-20T10:51:53;100500.53;;;12.63;78.20
34237;BME280;20501;45.956;13.632;2023-04-20T10:54:19;100491.28;;;12.37;80.87
34237;BME280;20501;45.956;13.632;2023-04-20T10:56:46;100473.41;;;12.08;80.88
34237;BME280;20501;45.956;13.632;2023-04-20T10:59:20;100472.16;;;12.03;81.72
34237;BME280;20501;45.956;13.632;2023-04-20T11:01:46;100471.91;;;12.87;76.98
34237;BME280;20501;45.956;13.632;2023-04-20T11:04:12;100472.56;;;13.59;73.39
34237;BME280;20501;45.956;13.632;2023-04-20T11:06:39;100475.56;;;13.91;71.70
34237;BME280;20501;45.956;13.632;2023-04-20T11:09:23;100474.47;;;14.27;70.08
34237;BME280;20501;45.956;13.632;2023-04-20T11:12:00;100468.53;;;14.31;69.90
34237;BME280;20501;45.956;13.632;2023-04-20T11:14:27;100453.28;;;13.10;77.09
34237;BME280;20501;45.956;13.632;2023-04-20T11:16:52;100461.94;;;12.87;76.80
34237;BME280;20501;45.956;13.632;2023-04-20T11:19:27;100453.84;;;12.51;78.11
34237;BME280;20501;45.956;13.632;2023-04-20T11:21:53;100454.06;;;11.75;81.28
34237;BME280;20501;45.956;13.632;2023-04-20T11:24:23;100455.78;;;12.59;77.59
34237;BME280;20501;45.956;13.632;2023-04-20T11:26:49;100460.47;;;12.20;79.55
34237;BME280;20501;45.956;13.632;2023-04-20T11:29:31;100456.59;;;11.77;79.64
34237;BME280;20501;45.956;13.632;2023-04-20T11:31:58;100464.91;;;12.58;77.80
34237;BME280;20501;45.956;13.632;2023-04-20T11:34:23;100461.19;;;13.29;74.60
34237;BME280;20501;45.956;13.632;2023-04-20T11:36:50;100459.34;;;11.95;80.12
34237;BME280;20501;45.956;13.632;2023-04-20T11:39:27;100467.78;;;12.56;76.74
34237;BME280;20501;45.956;13.632;2023-04-20T11:41:56;100458.22;;;12.88;77.11
34237;BME280;20501;45.956;13.632;2023-04-20T11:44:25;100467.31;;;13.05;75.25
34237;BME280;20501;45.956;13.632;2023-04-20T11:46:52;100472.34;;;13.00;76.17
34237;BME280;20501;45.956;13.632;2023-04-20T11:49:19;100473.31;;;12.00;78.03
34237;BME280;20501;45.956;13.632;2023-04-20T11:51:49;100471.88;;;11.40;80.02
34237;BME280;20501;45.956;13.632;2023-04-20T11:54:15;100464.97;;;12.12;78.10
34237;BME280;20501;45.956;13.632;2023-04-20T11:56:43;100459.81;;;11.63;77.41
34237;BME280;20501;45.956;13.632;2023-04-20T11:59:09;100457.63;;;11.94;76.03
34237;BME280;20501;45.956;13.632;2023-04-20T12:01:35;100461.38;;;11.93;76.93
34237;BME280;20501;45.956;13.632;2023-04-20T12:04:02;100457.38;;;11.69;78.52
34237;BME280;20501;45.956;13.632;2023-04-20T12:06:28;100454.72;;;11.59;79.19
34237;BME280;20501;45.956;13.632;2023-04-20T12:08:54;100450.00;;;11.61;77.51
34237;BME280;20501;45.956;13.632;2023-04-20T12:11:20;100451.28;;;12.13;74.68
34237;BME280;20501;45.956;13.632;2023-04-20T12:13:46;100444.78;;;11.50;77.76
34237;BME280;20501;45.956;13.632;2023-04-20T12:16:11;100436.41;;;11.99;77.84
34237;BME280;20501;45.956;13.632;2023-04-20T12:18:37;100431.03;;;11.71;76.88
34237;BME280;20501;45.956;13.632;2023-04-20T12:21:03;100436.03;;;12.48;76.03
34237;BME280;20501;45.956;13.632;2023-04-20T12:23:28;100445.88;;;12.31;75.01
34237;BME280;20501;45.956;13.632;2023-04-20T12:25:54;100434.63;;;12.26;74.42
34237;BME280;20501;45.956;13.632;2023-04-20T12:28:19;100445.34;;;12.28;76.54
34237;BME280;20501;45.956;13.632;2023-04-20T12:30:45;100448.31;;;12.79;74.33
34237;BME280;20501;45.956;13.632;2023-04-20T12:33:10;100446.28;;;13.07;73.38
34237;BME280;20501;45.956;13.632;2023-04-20T12:35:35;100443.25;;;11.93;74.03